createdAt,value
2019-02-24T00:05:02.598Z,1.00
2019-02-24T00:07:32.015Z,1.00
2019-02-24T00:10:01.585Z,1.00
2019-02-24T00:12:30.946Z,1.00
2019-02-24T00:15:00.613Z,0.90
2019-02-24T00:17:30.109Z,0.90
2019-02-24T00:19:59.621Z,0.90
2019-02-24T00:22:48.398Z,0.80
2019-02-24T00:25:39.095Z,0.80
2019-02-24T00:28:29.514Z,0.80
2019-02-24T00:34:35.142Z,0.80
2019-02-24T00:37:25.692Z,0.80
2019-02-24T00:40:16.129Z,0.80
2019-02-24T00:43:06.538Z,0.80
2019-02-24T00:45:55.363Z,0.70
2019-02-24T00:48:45.764Z,0.70
2019-02-24T00:51:36.211Z,0.70
2019-02-24T00:54:26.824Z,0.60
2019-02-24T00:57:17.241Z,0.60
2019-02-24T01:00:28.489Z,0.50
2019-02-24T01:03:19.020Z,0.60
2019-02-24T01:06:09.460Z,0.60
2019-02-24T01:09:00.146Z,0.50
2019-02-24T01:11:43.526Z,0.50
2019-02-24T01:14:24.938Z,0.50
2019-02-24T01:17:06.348Z,0.50
2019-02-24T01:19:48.571Z,0.50
2019-02-24T01:22:30.800Z,0.40
2019-02-24T01:25:12.676Z,0.40
2019-02-24T01:27:54.446Z,0.40
2019-02-24T01:30:36.793Z,0.40
2019-02-24T01:33:18.889Z,0.50
2019-02-24T01:36:00.803Z,0.50
2019-02-24T01:38:42.617Z,0.50
2019-02-24T01:41:24.757Z,0.50
2019-02-24T01:44:06.315Z,0.50
2019-02-24T01:46:48.089Z,0.50
2019-02-24T01:49:29.808Z,0.50
2019-02-24T01:52:11.305Z,0.50
2019-02-24T01:54:53.589Z,0.50
2019-02-24T01:57:35.640Z,0.50
2019-02-24T02:00:17.935Z,0.50
2019-02-24T02:02:59.318Z,0.50
2019-02-24T02:05:41.780Z,0.50
2019-02-24T02:08:23.454Z,0.40
2019-02-24T02:11:05.236Z,0.40
2019-02-24T02:13:47.453Z,0.40
2019-02-24T02:16:29.744Z,0.30
2019-02-24T02:19:11.670Z,0.30
2019-02-24T02:21:53.573Z,0.30
2019-02-24T02:24:35.852Z,0.20
2019-02-24T02:27:18.188Z,0.20
2019-02-24T02:30:00.423Z,0.20
2019-02-24T02:32:42.059Z,0.20
2019-02-24T02:35:23.529Z,0.20
2019-02-24T02:37:52.980Z,0.10
2019-02-24T02:40:24.847Z,0.10
2019-02-24T02:42:54.321Z,0.00
2019-02-24T02:45:23.932Z,0.00
2019-02-24T02:47:54.379Z,0.00
2019-02-24T02:50:23.840Z,-0.10
2019-02-24T02:52:53.398Z,0.00
2019-02-24T02:55:22.873Z,0.00
2019-02-24T02:57:52.488Z,0.00
2019-02-24T03:00:32.204Z,0.00
2019-02-24T03:03:01.962Z,0.00
2019-02-24T03:05:31.405Z,0.00
2019-02-24T03:08:05.288Z,0.10
2019-02-24T03:10:34.919Z,0.10
2019-02-24T03:13:04.481Z,0.10
2019-02-24T03:15:34.021Z,0.10
2019-02-24T03:18:03.620Z,0.10
2019-02-24T03:20:33.044Z,0.10
2019-02-24T03:23:02.531Z,0.10
2019-02-24T03:25:32.093Z,0.00
2019-02-24T03:28:01.891Z,0.00
2019-02-24T03:30:31.326Z,0.00
2019-02-24T03:33:00.951Z,-0.10
2019-02-24T03:35:30.549Z,-0.10
2019-02-24T03:38:00.035Z,-0.20
2019-02-24T03:40:30.167Z,-0.30
2019-02-24T03:42:59.553Z,-0.30
2019-02-24T03:45:29.148Z,-0.30
2019-02-24T03:48:00.563Z,-0.30
2019-02-24T03:50:30.221Z,-0.30
2019-02-24T03:52:59.910Z,-0.30
2019-02-24T03:55:29.346Z,-0.30
2019-02-24T03:57:58.986Z,-0.30
2019-02-24T04:00:28.480Z,-0.30
2019-02-24T04:02:58.062Z,-0.30
2019-02-24T04:05:28.246Z,-0.40
2019-02-24T04:07:57.711Z,-0.40
2019-02-24T04:10:28.294Z,-0.30
2019-02-24T04:12:58.099Z,-0.40
2019-02-24T04:15:28.910Z,-0.40
2019-02-24T04:17:58.399Z,-0.40
2019-02-24T04:20:28.316Z,-0.40
2019-02-24T04:23:06.841Z,-0.40
2019-02-24T04:25:37.686Z,-0.40
2019-02-24T04:28:07.182Z,-0.40
2019-02-24T04:30:36.672Z,-0.50
2019-02-24T04:33:06.265Z,-0.50
2019-02-24T04:35:36.215Z,-0.50
2019-02-24T04:38:06.049Z,-0.50
2019-02-24T04:40:35.660Z,-0.50
2019-02-24T04:43:05.129Z,-0.50
2019-02-24T04:45:34.675Z,-0.50
2019-02-24T04:48:04.140Z,-0.60
2019-02-24T04:50:33.575Z,-0.60
2019-02-24T04:53:03.157Z,-0.60
2019-02-24T04:55:32.596Z,-0.70
2019-02-24T04:58:02.174Z,-0.70
2019-02-24T05:00:32.036Z,-0.70
2019-02-24T05:03:01.622Z,-0.70
2019-02-24T05:05:31.270Z,-0.70
2019-02-24T05:08:00.665Z,-0.60
2019-02-24T05:10:30.283Z,-0.60
2019-02-24T05:13:04.585Z,-0.50
2019-02-24T05:15:34.424Z,-0.50
2019-02-24T05:18:04.251Z,-0.50
2019-02-24T05:20:33.692Z,-0.50
2019-02-24T05:23:03.111Z,-0.40
2019-02-24T05:25:32.654Z,-0.40
2019-02-24T05:28:02.155Z,-0.40
2019-02-24T05:30:31.616Z,-0.50
2019-02-24T05:33:01.157Z,-0.50
2019-02-24T05:35:30.640Z,-0.50
2019-02-24T05:38:00.181Z,-0.50
2019-02-24T05:40:29.665Z,-0.50
2019-02-24T05:42:59.211Z,-0.50
2019-02-24T05:45:30.017Z,-0.50
2019-02-24T05:47:59.530Z,-0.60
2019-02-24T05:50:29.280Z,-0.60
2019-02-24T05:52:58.714Z,-0.70
2019-02-24T05:55:28.509Z,-0.70
2019-02-24T05:57:58.228Z,-0.70
2019-02-24T06:00:28.510Z,-0.80
2019-02-24T06:02:58.107Z,-0.80
2019-02-24T06:05:28.442Z,-0.80
2019-02-24T06:07:58.255Z,-0.80
2019-02-24T06:10:28.475Z,-0.80
2019-02-24T06:12:58.174Z,-0.90
2019-02-24T06:15:28.533Z,-0.80
2019-02-24T06:17:58.230Z,-0.80
2019-02-24T06:20:28.571Z,-0.90
2019-02-24T06:22:58.287Z,-0.80
2019-02-24T06:25:28.593Z,-0.80
2019-02-24T06:27:58.202Z,-0.70
2019-02-24T06:30:28.515Z,-0.60
2019-02-24T06:32:58.226Z,-0.60
2019-02-24T06:35:28.523Z,-0.60
2019-02-24T06:37:58.213Z,-0.60
2019-02-24T06:40:28.568Z,-0.50
2019-02-24T06:42:58.855Z,-0.50
2019-02-24T06:45:28.651Z,-0.50
2019-02-24T06:47:58.347Z,-0.50
2019-02-24T06:50:35.413Z,-0.50
2019-02-24T06:53:01.403Z,-0.40
2019-02-24T06:55:31.912Z,-0.40
2019-02-24T06:58:01.380Z,-0.30
2019-02-24T07:00:30.785Z,-0.20
2019-02-24T07:03:01.557Z,-0.20
2019-02-24T07:05:31.372Z,0.00
2019-02-24T07:08:01.751Z,0.10
2019-02-24T07:10:31.484Z,0.20
2019-02-24T07:13:00.955Z,0.30
2019-02-24T07:15:30.651Z,0.40
2019-02-24T07:18:01.957Z,0.50
2019-02-24T07:20:31.579Z,0.60
2019-02-24T07:23:01.005Z,0.70
2019-02-24T07:25:30.563Z,0.90
2019-02-24T07:27:59.986Z,1.00
2019-02-24T07:30:29.605Z,1.10
2019-02-24T07:32:59.272Z,1.20
2019-02-24T07:35:28.801Z,1.20
2019-02-24T07:37:58.350Z,1.30
2019-02-24T07:40:28.691Z,1.50
2019-02-24T07:42:58.359Z,1.60
2019-02-24T07:45:28.700Z,1.60
2019-02-24T07:47:58.387Z,1.70
2019-02-24T07:50:28.702Z,1.90
2019-02-24T07:52:58.381Z,1.90
2019-02-24T07:55:28.757Z,2.00
2019-02-24T07:57:58.327Z,2.00
2019-02-24T08:00:32.239Z,2.10
2019-02-24T08:02:59.838Z,2.20
2019-02-24T08:05:29.615Z,2.30
2019-02-24T08:07:59.045Z,2.40
2019-02-24T08:10:28.782Z,2.50
2019-02-24T08:12:58.466Z,2.50
2019-02-24T08:15:28.695Z,2.60
2019-02-24T08:17:58.439Z,2.70
2019-02-24T08:20:28.701Z,2.70
2019-02-24T08:22:58.401Z,2.70
2019-02-24T08:25:28.686Z,2.70
2019-02-24T08:27:58.158Z,2.60
2019-02-24T08:30:28.658Z,2.40
2019-02-24T08:32:59.365Z,2.50
2019-02-24T08:35:28.772Z,2.40
2019-02-24T08:38:37.284Z,2.60
2019-02-24T08:41:27.974Z,2.80
2019-02-24T08:44:16.852Z,2.90
2019-02-24T08:47:07.331Z,3.10
2019-02-24T08:49:57.983Z,3.10
2019-02-24T08:52:48.439Z,3.20
2019-02-24T08:55:38.933Z,3.10
2019-02-24T08:58:28.005Z,3.10
2019-02-24T09:01:18.478Z,3.20
2019-02-24T09:04:26.854Z,3.30
2019-02-24T09:07:15.916Z,3.10
2019-02-24T09:10:27.137Z,3.20
2019-02-24T09:13:11.081Z,3.40
2019-02-24T09:15:53.486Z,3.70
2019-02-24T09:18:35.957Z,3.80
2019-02-24T09:21:18.074Z,3.80
2019-02-24T09:24:00.212Z,3.80
2019-02-24T09:26:42.199Z,3.90
2019-02-24T09:29:23.960Z,4.00
2019-02-24T09:32:09.711Z,4.00
2019-02-24T09:34:51.054Z,4.40
2019-02-24T09:37:33.427Z,4.70
2019-02-24T09:40:15.187Z,5.00
2019-02-24T09:42:55.018Z,5.10
2019-02-24T09:45:43.952Z,5.30
2019-02-24T09:48:52.196Z,5.50
2019-02-24T09:52:15.493Z,5.60
2019-02-24T09:58:40.013Z,5.60
2019-02-24T10:01:28.906Z,5.80
2019-02-24T10:04:19.366Z,6.10
2019-02-24T10:07:08.200Z,6.50
2019-02-24T10:09:58.616Z,6.50
2019-02-24T10:12:41.322Z,6.60
2019-02-24T10:15:14.590Z,6.80
2019-02-24T10:17:44.054Z,6.80
2019-02-24T10:20:13.665Z,7.00
2019-02-24T10:22:43.132Z,7.30
2019-02-24T10:25:12.624Z,7.50
2019-02-24T10:27:42.075Z,7.50
2019-02-24T10:30:12.828Z,7.60
2019-02-24T10:32:42.864Z,7.90
2019-02-24T10:35:12.593Z,8.40
2019-02-24T10:37:42.069Z,8.60
2019-02-24T10:40:13.819Z,8.90
2019-02-24T10:42:43.823Z,9.10
2019-02-24T10:45:18.074Z,9.10
2019-02-24T10:47:47.666Z,8.90
2019-02-24T10:50:17.582Z,8.80
2019-02-24T10:52:47.149Z,8.60
2019-02-24T10:55:16.681Z,8.40
2019-02-24T10:57:46.118Z,8.40
2019-02-24T11:00:19.762Z,8.30
2019-02-24T11:02:49.245Z,8.20
2019-02-24T11:05:18.862Z,8.10
2019-02-24T11:07:48.566Z,8.10
2019-02-24T11:10:18.054Z,8.20
2019-02-24T11:12:47.741Z,8.20
2019-02-24T11:15:17.152Z,8.10
2019-02-24T11:17:46.844Z,8.30
2019-02-24T11:20:17.475Z,8.20
2019-02-24T11:22:46.954Z,8.30
2019-02-24T11:25:16.695Z,8.30
2019-02-24T11:27:46.084Z,8.40
2019-02-24T11:30:15.710Z,8.40
2019-02-24T11:32:45.105Z,8.50
2019-02-24T11:35:14.719Z,8.60
2019-02-24T11:37:44.193Z,8.60
2019-02-24T11:40:17.004Z,8.70
2019-02-24T11:42:46.741Z,8.70
2019-02-24T11:45:16.362Z,8.70
2019-02-24T11:47:45.867Z,8.80
2019-02-24T11:50:15.339Z,8.60
2019-02-24T11:52:44.871Z,8.70
2019-02-24T11:55:14.416Z,8.70
2019-02-24T11:57:43.944Z,8.60
2019-02-24T12:00:16.929Z,8.60
2019-02-24T12:02:46.363Z,8.50
2019-02-24T12:05:15.897Z,8.40
2019-02-24T12:07:45.391Z,8.60
2019-02-24T12:10:14.858Z,8.70
2019-02-24T12:12:44.333Z,8.60
2019-02-24T12:15:14.711Z,8.50
2019-02-24T12:17:44.253Z,8.50
2019-02-24T12:20:14.512Z,8.60
2019-02-24T12:22:44.035Z,8.60
2019-02-24T12:25:13.388Z,8.50
2019-02-24T12:27:42.978Z,8.40
2019-02-24T12:30:16.322Z,8.40
2019-02-24T12:32:45.936Z,8.60
2019-02-24T12:35:15.403Z,8.70
2019-02-24T12:37:44.978Z,8.70
2019-02-24T12:40:33.959Z,8.90
2019-02-24T12:43:04.950Z,8.70
2019-02-24T12:45:34.404Z,8.70
2019-02-24T12:48:03.822Z,8.80
2019-02-24T12:50:33.231Z,8.90
2019-02-24T12:53:02.938Z,8.90
2019-02-24T12:55:32.467Z,8.90
2019-02-24T12:58:01.899Z,8.90
2019-02-24T13:00:31.304Z,9.00
2019-02-24T13:03:00.852Z,9.00
2019-02-24T13:05:30.390Z,9.00
2019-02-24T13:07:59.869Z,8.90
2019-02-24T13:10:29.376Z,8.90
2019-02-24T13:12:58.862Z,8.90
2019-02-24T13:15:29.150Z,8.80
2019-02-24T13:17:58.517Z,8.80
2019-02-24T13:20:29.160Z,8.70
2019-02-24T13:22:58.807Z,8.70
2019-02-24T13:25:30.983Z,8.70
2019-02-24T13:28:01.766Z,8.80
2019-02-24T13:30:31.225Z,8.90
2019-02-24T13:33:00.863Z,9.00
2019-02-24T13:35:30.321Z,9.10
2019-02-24T13:37:59.863Z,9.20
2019-02-24T13:40:29.398Z,9.30
2019-02-24T13:42:58.877Z,9.30
2019-02-24T13:45:29.175Z,9.40
2019-02-24T13:47:58.894Z,9.40
2019-02-24T13:50:29.187Z,9.50
2019-02-24T13:52:58.534Z,9.40
2019-02-24T13:55:29.214Z,9.50
2019-02-24T13:57:58.920Z,9.50
2019-02-24T14:00:29.194Z,9.90
2019-02-24T14:02:58.948Z,10.20
2019-02-24T14:05:29.233Z,10.40
2019-02-24T14:07:58.886Z,10.80
2019-02-24T14:10:29.200Z,11.10
2019-02-24T14:12:59.033Z,11.20
2019-02-24T14:15:29.248Z,11.10
2019-02-24T14:17:58.964Z,11.00
2019-02-24T14:20:29.211Z,10.90
2019-02-24T14:22:58.621Z,10.60
2019-02-24T14:25:29.228Z,10.30
2019-02-24T14:27:58.959Z,10.80
2019-02-24T14:30:29.235Z,12.40
2019-02-24T14:32:59.056Z,14.10
2019-02-24T14:35:29.259Z,15.50
2019-02-24T14:37:58.940Z,16.80
2019-02-24T14:40:29.360Z,17.60
2019-02-24T14:42:59.121Z,18.50
2019-02-24T14:45:29.375Z,19.10
2019-02-24T14:47:59.319Z,19.30
2019-02-24T14:50:29.349Z,20.00
2019-02-24T14:52:59.167Z,20.60
2019-02-24T14:55:29.442Z,20.50
2019-02-24T14:57:59.103Z,20.80
2019-02-24T15:00:29.548Z,21.30
2019-02-24T15:02:59.147Z,21.90
2019-02-24T15:05:29.402Z,22.30
2019-02-24T15:07:59.075Z,22.50
2019-02-24T15:10:29.424Z,22.10
2019-02-24T15:12:59.155Z,21.40
2019-02-24T15:15:33.385Z,21.50
2019-02-24T15:18:03.229Z,22.00
2019-02-24T15:20:32.750Z,22.20
2019-02-24T15:23:02.235Z,23.10
2019-02-24T15:25:31.845Z,22.80
2019-02-24T15:28:01.688Z,22.60
2019-02-24T15:30:39.000Z,23.10
2019-02-24T15:33:08.419Z,23.90
2019-02-24T15:35:38.189Z,23.30
2019-02-24T15:38:07.784Z,22.60
2019-02-24T15:40:37.407Z,22.60
2019-02-24T15:43:07.227Z,22.30
2019-02-24T15:45:36.713Z,22.20
2019-02-24T15:48:06.151Z,21.90
2019-02-24T15:50:35.684Z,21.50
2019-02-24T15:53:05.370Z,20.80
2019-02-24T15:55:35.416Z,20.10
2019-02-24T15:58:05.126Z,19.60
2019-02-24T16:00:34.591Z,19.00
2019-02-24T16:03:06.978Z,18.00
2019-02-24T16:05:36.511Z,17.00
2019-02-24T16:08:06.199Z,15.90
2019-02-24T16:10:37.548Z,15.10
2019-02-24T16:13:16.347Z,14.00
2019-02-24T16:15:38.317Z,13.00
2019-02-24T16:18:07.726Z,11.90
2019-02-24T16:20:38.243Z,11.00
2019-02-24T16:23:07.684Z,10.40
2019-02-24T16:25:37.378Z,9.80
2019-02-24T16:28:07.116Z,9.50
2019-02-24T16:30:36.667Z,9.20
2019-02-24T16:33:10.700Z,8.80
2019-02-24T16:35:37.363Z,8.60
2019-02-24T16:38:06.892Z,8.30
2019-02-24T16:40:36.422Z,8.10
2019-02-24T16:43:05.848Z,7.80
2019-02-24T16:45:35.388Z,7.70
2019-02-24T16:48:04.809Z,7.60
2019-02-24T16:50:34.408Z,7.40
2019-02-24T16:53:03.825Z,7.30
2019-02-24T16:55:33.360Z,7.20
2019-02-24T16:58:02.746Z,7.10
2019-02-24T17:00:32.412Z,6.90
2019-02-24T17:03:01.917Z,6.90
2019-02-24T17:05:31.441Z,6.80
2019-02-24T17:08:01.187Z,6.70
2019-02-24T17:10:30.761Z,6.60
2019-02-24T17:13:01.866Z,6.50
2019-02-24T17:15:31.460Z,6.40
2019-02-24T17:18:00.940Z,6.30
2019-02-24T17:20:33.936Z,6.20
2019-02-24T17:23:03.382Z,6.10
2019-02-24T17:25:32.918Z,6.00
2019-02-24T17:28:02.360Z,6.00
2019-02-24T17:30:31.833Z,6.10
2019-02-24T17:33:01.501Z,6.10
2019-02-24T17:35:31.329Z,6.10
2019-02-24T17:38:00.964Z,6.00
2019-02-24T17:40:30.712Z,6.00
2019-02-24T17:43:00.332Z,5.90
2019-02-24T17:45:29.766Z,5.90
2019-02-24T17:47:59.336Z,5.90
2019-02-24T17:50:29.603Z,5.90
2019-02-24T17:52:59.390Z,5.90
2019-02-24T17:55:29.609Z,5.80
2019-02-24T17:57:59.412Z,5.80
2019-02-24T18:00:31.556Z,5.70
2019-02-24T18:03:01.068Z,5.60
2019-02-24T18:05:30.830Z,5.60
2019-02-24T18:08:00.414Z,5.50
2019-02-24T18:10:29.939Z,5.50
2019-02-24T18:12:59.456Z,5.40
2019-02-24T18:15:29.740Z,5.40
2019-02-24T18:17:59.414Z,5.30
2019-02-24T18:20:29.689Z,5.20
2019-02-24T18:22:59.377Z,5.20
2019-02-24T18:25:29.716Z,5.20
2019-02-24T18:27:59.484Z,5.20
2019-02-24T18:30:30.685Z,5.10
2019-02-24T18:33:00.366Z,5.10
2019-02-24T18:35:29.783Z,5.00
2019-02-24T18:37:59.487Z,5.00
2019-02-24T18:40:29.678Z,5.00
2019-02-24T18:43:00.701Z,4.90
2019-02-24T18:45:30.589Z,4.80
2019-02-24T18:48:00.407Z,4.80
2019-02-24T18:50:30.035Z,4.90
2019-02-24T18:52:59.458Z,4.90
2019-02-24T18:55:29.690Z,4.80
2019-02-24T18:57:59.254Z,4.80
2019-02-24T19:00:29.754Z,4.80
2019-02-24T19:02:59.462Z,4.80
2019-02-24T19:05:29.744Z,4.80
2019-02-24T19:07:59.548Z,4.70
2019-02-24T19:10:29.743Z,4.70
2019-02-24T19:12:59.507Z,4.70
2019-02-24T19:15:29.707Z,4.60
2019-02-24T19:17:59.527Z,4.60
2019-02-24T19:20:29.859Z,4.60
2019-02-24T19:22:59.515Z,4.50
2019-02-24T19:25:29.728Z,4.50
2019-02-24T19:27:59.509Z,4.50
2019-02-24T19:30:29.815Z,4.40
2019-02-24T19:32:59.528Z,4.40
2019-02-24T19:35:29.863Z,4.50
2019-02-24T19:37:59.559Z,4.40
2019-02-24T19:40:29.780Z,4.40
2019-02-24T19:42:59.481Z,4.40
2019-02-24T19:45:29.870Z,4.40
2019-02-24T19:47:59.494Z,4.50
2019-02-24T19:50:29.855Z,4.50
2019-02-24T19:52:59.732Z,4.50
2019-02-24T19:55:29.844Z,4.50
2019-02-24T19:57:59.545Z,4.50
2019-02-24T20:00:29.843Z,4.50
2019-02-24T20:02:59.569Z,4.50
2019-02-24T20:05:29.908Z,4.40
2019-02-24T20:07:59.623Z,4.50
2019-02-24T20:10:30.460Z,4.50
2019-02-24T20:13:00.055Z,4.50
2019-02-24T20:15:29.928Z,4.40
2019-02-24T20:17:59.607Z,4.40
2019-02-24T20:20:29.887Z,4.40
2019-02-24T20:22:59.646Z,4.40
2019-02-24T20:25:29.921Z,4.40
2019-02-24T20:27:59.686Z,4.40
2019-02-24T20:30:32.685Z,4.30
2019-02-24T20:33:02.241Z,4.30
2019-02-24T20:35:31.823Z,4.40
2019-02-24T20:38:01.682Z,4.40
2019-02-24T20:44:42.451Z,4.40
2019-02-24T20:47:33.156Z,4.30
2019-02-24T20:50:43.178Z,4.30
2019-02-24T20:53:33.753Z,4.10
2019-02-24T20:56:24.254Z,4.30
2019-02-24T20:59:32.558Z,4.30
2019-02-24T21:02:03.830Z,4.20
2019-02-24T21:04:33.266Z,4.20
2019-02-24T21:07:02.831Z,4.10
2019-02-24T21:09:32.620Z,4.10
2019-02-24T21:12:02.180Z,4.00
2019-02-24T21:14:31.817Z,4.00
2019-02-24T21:17:01.280Z,4.00
2019-02-24T21:19:30.820Z,4.00
2019-02-24T21:22:00.254Z,3.90
2019-02-24T21:24:29.997Z,3.90
2019-02-24T21:26:59.677Z,3.90
2019-02-24T21:29:29.922Z,3.90
2019-02-24T21:31:59.640Z,3.90
2019-02-24T21:34:30.023Z,3.90
2019-02-24T21:36:59.639Z,3.80
2019-02-24T21:39:29.966Z,3.80
2019-02-24T21:41:59.688Z,3.80
2019-02-24T21:44:29.966Z,3.70
2019-02-24T21:50:49.468Z,3.70
2019-02-24T21:53:18.952Z,3.60
2019-02-24T21:55:48.322Z,3.60
2019-02-24T21:58:19.028Z,3.70
2019-02-24T22:00:49.782Z,3.70
2019-02-24T22:03:19.267Z,3.70
2019-02-24T22:05:48.914Z,3.60
2019-02-24T22:08:18.326Z,3.60
2019-02-24T22:10:47.918Z,3.70
2019-02-24T22:13:17.402Z,3.60
2019-02-24T22:15:59.765Z,3.60
2019-02-24T22:18:42.783Z,3.60
2019-02-24T22:21:24.233Z,3.60
2019-02-24T22:24:06.655Z,3.60
2019-02-24T22:26:48.943Z,3.60
2019-02-24T22:29:30.702Z,3.60
2019-02-24T22:32:12.772Z,3.60
2019-02-24T22:34:55.644Z,3.50
2019-02-24T22:37:37.069Z,3.50
2019-02-24T22:40:19.177Z,3.50
2019-02-24T22:43:01.717Z,3.40
2019-02-24T22:45:43.659Z,3.30
2019-02-24T22:48:25.865Z,3.30
2019-02-24T22:51:08.150Z,3.20
2019-02-24T22:53:38.136Z,3.20
2019-02-24T22:56:28.526Z,3.20
2019-02-24T22:59:17.373Z,3.20
2019-02-24T23:02:07.789Z,3.20
2019-02-24T23:04:58.442Z,3.20
2019-02-24T23:07:49.947Z,3.20
2019-02-24T23:10:59.509Z,3.10
2019-02-24T23:13:42.965Z,3.10
2019-02-24T23:16:25.165Z,3.10
2019-02-24T23:19:06.841Z,3.20
2019-02-24T23:21:48.595Z,3.20
2019-02-24T23:24:30.784Z,3.20
2019-02-24T23:27:13.093Z,3.20
2019-02-24T23:29:54.786Z,3.20
2019-02-24T23:32:36.848Z,3.20
2019-02-24T23:35:18.548Z,3.20
2019-02-24T23:38:00.212Z,3.10
2019-02-24T23:40:42.142Z,3.10
2019-02-24T23:43:23.833Z,3.00
2019-02-24T23:46:05.925Z,3.00
2019-02-24T23:48:47.317Z,3.00
2019-02-24T23:51:29.707Z,3.00
2019-02-24T23:54:11.054Z,3.00
2019-02-24T23:56:53.171Z,3.00
2019-02-24T23:59:35.043Z,3.10
